Time;durP1;ratioP1;P1;durP2;ratioP2;P2;SDS_P1;SDS_P2;PMS_P1;PMS_P2;Temp;Humidity;BMP_temperature;BMP_pressure;BME280_temperature;BME280_humidity;BME280_pressure;Samples;Min_cycle;Max_cycle;Signal;HPM_P1;HPM_P2
2022/09/08 00:02:24;;;;;;;1999.90;999.90;;;13.60;99.90;;;;;;5207794;28;20018;-78
2022/09/08 00:04:56;;;;;;;1999.90;999.90;;;13.40;99.90;;;;;;5207989;28;20064;-78
2022/09/08 00:07:28;;;;;;;1999.90;999.90;;;13.70;99.90;;;;;;5208004;28;20017;-77
2022/09/08 00:10:00;;;;;;;1999.90;999.90;;;13.50;99.90;;;;;;5207801;28;20028;-76
2022/09/08 00:12:34;;;;;;;1999.90;999.90;;;13.30;99.90;;;;;;5206506;28;20505;-77
2022/09/08 00:15:06;;;;;;;1999.90;999.90;;;13.20;99.90;;;;;;5206770;28;20064;-76
2022/09/08 00:17:38;;;;;;;1999.90;999.90;;;13.10;99.90;;;;;;5208285;28;20037;-77
2022/09/08 00:20:09;;;;;;;1999.90;999.90;;;13.40;99.90;;;;;;5207920;28;20033;-77
2022/09/08 00:22:41;;;;;;;1999.90;999.90;;;12.90;99.90;;;;;;5207867;28;20172;-77
2022/09/08 00:25:11;;;;;;;1999.90;999.90;;;13.20;99.90;;;;;;5207704;28;20022;-77
2022/09/08 00:27:42;;;;;;;1999.90;999.90;;;13.40;99.90;;;;;;5205906;28;20385;-77
2022/09/08 00:30:13;;;;;;;1999.90;999.90;;;13.40;99.90;;;;;;5207804;28;20024;-77
2022/09/08 00:32:44;;;;;;;1999.90;999.90;;;13.30;99.90;;;;;;5206862;28;20045;-77
2022/09/08 00:35:18;;;;;;;1999.90;999.90;;;13.20;99.90;;;;;;5208094;28;20148;-77
2022/09/08 00:37:52;;;;;;;1999.90;999.90;;;13.30;99.90;;;;;;5207483;28;20444;-78
2022/09/08 00:40:24;;;;;;;1999.90;999.90;;;13.40;99.90;;;;;;5207311;28;20028;-76
2022/09/08 00:43:01;;;;;;;1999.90;999.90;;;13.50;99.90;;;;;;5207350;28;20058;-76
2022/09/08 00:45:37;;;;;;;1999.90;999.90;;;13.50;99.90;;;;;;5207811;28;20017;-75
2022/09/08 00:48:16;;;;;;;1999.90;999.90;;;13.20;99.90;;;;;;5207631;28;20417;-77
2022/09/08 00:50:46;;;;;;;1999.90;999.90;;;13.10;99.90;;;;;;5207266;28;20499;-78
2022/09/08 00:53:19;;;;;;;1999.90;999.90;;;13.30;99.90;;;;;;5207479;28;20140;-78
2022/09/08 00:55:50;;;;;;;1999.90;999.90;;;13.00;99.90;;;;;;5207383;28;20025;-77
2022/09/08 00:58:21;;;;;;;1999.90;999.90;;;12.90;99.90;;;;;;5207535;28;20429;-78
2022/09/08 01:00:52;;;;;;;1999.90;999.90;;;12.60;99.90;;;;;;5206267;28;20487;-78
2022/09/08 01:03:23;;;;;;;1999.90;999.90;;;12.90;99.90;;;;;;5206026;28;20041;-77
2022/09/08 01:06:05;;;;;;;1999.90;999.90;;;12.70;99.90;;;;;;5206845;28;20029;-77
2022/09/08 01:14:54;;;;;;;1999.90;999.90;;;12.80;99.90;;;;;;5207053;28;20036;-77
2022/09/08 01:17:29;;;;;;;1999.90;999.90;;;13.00;99.90;;;;;;5206888;28;20068;-77
2022/09/08 01:20:03;;;;;;;1999.90;999.90;;;13.10;99.90;;;;;;5206652;28;20026;-77
2022/09/08 01:22:58;;;;;;;1999.90;999.90;;;13.00;99.90;;;;;;5206678;28;20036;-77
2022/09/08 01:26:06;;;;;;;1999.90;999.90;;;12.70;99.90;;;;;;5206598;28;20029;-76
2022/09/08 01:28:53;;;;;;;1999.90;999.90;;;12.90;99.90;;;;;;5206535;28;20417;-77
2022/09/08 01:31:24;;;;;;;1999.90;999.90;;;12.90;99.90;;;;;;5206527;28;20029;-76
2022/09/08 01:33:55;;;;;;;1999.90;999.90;;;13.10;99.90;;;;;;5206247;28;20083;-77
2022/09/08 01:36:26;;;;;;;1999.90;999.90;;;12.50;99.90;;;;;;5206191;28;20468;-78
2022/09/08 01:38:57;;;;;;;1999.90;999.90;;;12.80;99.90;;;;;;5204862;28;20044;-77
2022/09/08 01:41:27;;;;;;;1999.90;999.90;;;13.00;99.90;;;;;;5205936;28;20052;-78
2022/09/08 01:43:58;;;;;;;1999.90;999.90;;;12.70;99.90;;;;;;5206176;28;20030;-76
2022/09/08 01:46:30;;;;;;;1999.90;999.90;;;12.60;99.90;;;;;;5206199;28;20025;-77
2022/09/08 01:49:01;;;;;;;1999.90;999.90;;;12.90;99.90;;;;;;5206029;28;20032;-77
2022/09/08 01:51:33;;;;;;;1999.90;999.90;;;12.60;99.90;;;;;;5205980;28;20029;-78
2022/09/08 01:54:04;;;;;;;1999.90;999.90;;;12.60;99.90;;;;;;5205829;28;20061;-78
2022/09/08 01:56:35;;;;;;;1999.90;999.90;;;12.50;99.90;;;;;;5206327;28;20064;-77
2022/09/08 01:59:06;;;;;;;1999.90;999.90;;;12.50;99.90;;;;;;5206225;28;20025;-78
2022/09/08 02:01:37;;;;;;;1999.90;999.90;;;12.70;99.90;;;;;;5205970;28;20300;-78
2022/09/08 02:04:08;;;;;;;1999.90;999.90;;;12.30;99.90;;;;;;5205898;28;20033;-74
2022/09/08 02:06:38;;;;;;;1999.90;999.90;;;12.90;99.90;;;;;;5205390;28;20028;-78
2022/09/08 02:09:09;;;;;;;1999.90;999.90;;;12.70;99.90;;;;;;5205724;28;20030;-78
2022/09/08 02:11:40;;;;;;;1999.90;999.90;;;12.40;99.90;;;;;;5204447;28;20045;-78
2022/09/08 02:14:11;;;;;;;1999.90;999.90;;;12.70;99.90;;;;;;5205757;28;20029;-76
2022/09/08 02:16:42;;;;;;;1999.90;999.90;;;12.60;99.90;;;;;;5205708;28;20025;-75
2022/09/08 02:19:13;;;;;;;1999.90;999.90;;;12.70;99.90;;;;;;5205611;28;20033;-76
2022/09/08 02:21:43;;;;;;;1999.90;999.90;;;12.70;99.90;;;;;;5204211;28;20025;-76
2022/09/08 02:24:14;;;;;;;1999.90;999.90;;;12.50;99.90;;;;;;5205675;28;20424;-77
2022/09/08 02:26:45;;;;;;;1999.90;999.90;;;12.30;99.90;;;;;;5205369;28;20028;-77
2022/09/08 02:29:16;;;;;;;1999.90;999.90;;;12.50;99.90;;;;;;5203758;28;20026;-78
2022/09/08 02:31:47;;;;;;;1999.90;999.90;;;11.80;99.90;;;;;;5205101;28;20044;-77
2022/09/08 02:34:22;;;;;;;1999.90;999.90;;;12.20;99.90;;;;;;5205515;28;20529;-73
2022/09/08 02:37:00;;;;;;;1999.90;999.90;;;12.20;99.90;;;;;;5206282;28;20053;-72
2022/09/08 02:39:35;;;;;;;1999.90;999.90;;;12.10;99.90;;;;;;5205047;28;20025;-71
2022/09/08 02:42:16;;;;;;;1999.90;999.90;;;12.20;99.90;;;;;;5204326;28;20053;-74
2022/09/08 02:44:52;;;;;;;1999.90;999.90;;;12.50;99.90;;;;;;5204546;28;20132;-72
2022/09/08 02:47:22;;;;;;;1999.90;999.90;;;12.50;99.90;;;;;;5205547;28;20026;-77
2022/09/08 02:49:53;;;;;;;1999.90;999.90;;;12.20;99.90;;;;;;5204780;28;20022;-77
2022/09/08 02:52:24;;;;;;;1999.90;999.90;;;12.20;99.90;;;;;;5203564;28;20969;-78
2022/09/08 02:54:55;;;;;;;1999.90;999.90;;;12.00;99.90;;;;;;5205025;28;20063;-75
2022/09/08 02:57:26;;;;;;;1999.90;999.90;;;11.90;99.90;;;;;;5204956;28;20021;-77
2022/09/08 02:59:57;;;;;;;1999.90;999.90;;;12.30;99.90;;;;;;5205030;28;20022;-76
2022/09/08 03:02:28;;;;;;;1999.90;999.90;;;12.10;99.90;;;;;;5205016;28;20013;-77
2022/09/08 03:04:58;;;;;;;1999.90;999.90;;;12.40;99.90;;;;;;5204924;28;20036;-77
2022/09/08 03:07:29;;;;;;;1999.90;999.90;;;11.90;99.90;;;;;;5203554;28;20125;-78
2022/09/08 03:10:00;;;;;;;1999.90;999.90;;;12.10;99.90;;;;;;5204768;28;20033;-77
2022/09/08 03:12:31;;;;;;;1999.90;999.90;;;12.30;99.90;;;;;;5205007;28;20080;-76
2022/09/08 03:15:02;;;;;;;1999.90;999.90;;;12.40;99.90;;;;;;5205012;28;20030;-76
2022/09/08 03:17:33;;;;;;;1999.90;999.90;;;12.50;99.90;;;;;;5204667;28;20382;-78
2022/09/08 03:20:04;;;;;;;1999.90;999.90;;;12.20;99.90;;;;;;5204884;28;20021;-78
2022/09/08 03:22:35;;;;;;;1999.90;999.90;;;12.10;99.90;;;;;;5202810;28;20115;-77
2022/09/08 03:25:06;;;;;;;1999.90;999.90;;;12.20;99.90;;;;;;5204468;28;20061;-74
2022/09/08 03:27:38;;;;;;;1999.90;999.90;;;12.10;99.90;;;;;;5204551;28;20033;-75
2022/09/08 03:30:11;;;;;;;1999.90;999.90;;;12.20;99.90;;;;;;5203370;28;20121;-75
2022/09/08 03:32:44;;;;;;;1999.90;999.90;;;12.10;99.90;;;;;;5204789;28;20065;-76
2022/09/08 03:35:17;;;;;;;1999.90;999.90;;;12.10;99.90;;;;;;5204763;28;20079;-76
2022/09/08 03:37:48;;;;;;;1999.90;999.90;;;12.10;99.90;;;;;;5203319;28;20068;-76
2022/09/08 03:40:19;;;;;;;1999.90;999.90;;;12.20;99.90;;;;;;5203155;28;20057;-76
2022/09/08 03:42:50;;;;;;;1999.90;999.90;;;11.80;99.90;;;;;;5203086;28;20053;-75
2022/09/08 03:45:21;;;;;;;1999.90;999.90;;;11.80;99.90;;;;;;5204930;28;20017;-76
2022/09/08 03:47:51;;;;;;;1999.90;999.90;;;12.20;99.90;;;;;;5203445;28;20366;-77
2022/09/08 03:50:23;;;;;;;1999.90;999.90;;;12.40;99.90;;;;;;5204497;28;20022;-77
2022/09/08 03:52:54;;;;;;;1999.90;999.90;;;12.30;99.90;;;;;;5204578;28;20033;-74
2022/09/08 03:55:25;;;;;;;1999.90;999.90;;;12.20;99.90;;;;;;5203111;28;20470;-76
2022/09/08 03:57:55;;;;;;;1999.90;999.90;;;12.00;99.90;;;;;;5204545;28;20029;-76
2022/09/08 04:00:27;;;;;;;1999.90;999.90;;;12.10;99.90;;;;;;5204516;28;20025;-75
2022/09/08 04:02:58;;;;;;;1999.90;999.90;;;12.30;99.90;;;;;;5207639;28;20034;-75
2022/09/08 04:05:29;;;;;;;1999.90;999.90;;;12.10;99.90;;;;;;5208038;28;20079;-76
2022/09/08 04:08:00;;;;;;;1999.90;999.90;;;12.00;99.90;;;;;;5207987;28;20112;-77
2022/09/08 04:10:31;;;;;;;1999.90;999.90;;;11.90;99.90;;;;;;5207888;28;20162;-75
2022/09/08 04:13:02;;;;;;;1999.90;999.90;;;12.10;99.90;;;;;;5207809;28;20052;-75
2022/09/08 04:15:32;;;;;;;1999.90;999.90;;;12.30;99.90;;;;;;5207979;28;20028;-74
2022/09/08 04:18:04;;;;;;;1999.90;999.90;;;12.00;99.90;;;;;;5206460;28;20037;-75
2022/09/08 04:20:38;;;;;;;1999.90;999.90;;;11.90;99.90;;;;;;5207735;28;20108;-75
2022/09/08 04:23:09;;;;;;;1999.90;999.90;;;11.90;99.90;;;;;;5207990;28;20389;-75
2022/09/08 04:25:39;;;;;;;1999.90;999.90;;;12.10;99.90;;;;;;5208209;28;20029;-75
2022/09/08 04:28:12;;;;;;;1999.90;999.90;;;12.50;99.90;;;;;;5207760;28;20036;-75
2022/09/08 04:30:42;;;;;;;1999.90;999.90;;;12.40;99.90;;;;;;5207542;28;20029;-75
2022/09/08 04:33:13;;;;;;;1999.90;999.90;;;12.60;99.90;;;;;;5207473;28;20123;-76
2022/09/08 04:35:44;;;;;;;1999.90;999.90;;;12.90;99.90;;;;;;5207687;28;20010;-74
2022/09/08 04:38:15;;;;;;;1999.90;999.90;;;12.70;99.90;;;;;;5206132;28;20030;-76
2022/09/08 04:40:46;;;;;;;1999.90;999.90;;;13.00;99.90;;;;;;5207301;28;20101;-77
2022/09/08 04:43:17;;;;;;;1999.90;999.90;;;13.20;99.90;;;;;;5207513;28;20053;-74
2022/09/08 04:45:47;;;;;;;1999.90;999.90;;;13.40;99.90;;;;;;5206268;28;20028;-75
2022/09/08 04:48:18;;;;;;;1999.90;999.90;;;13.30;99.90;;;;;;5207374;28;20107;-74
2022/09/08 04:50:54;;;;;;;1999.90;999.90;;;13.50;99.90;;;;;;5206139;28;20029;-76
2022/09/08 04:53:30;;;;;;;1999.90;999.90;;;13.70;99.90;;;;;;5207478;28;20037;-76
2022/09/08 04:56:03;;;;;;;1999.90;999.90;;;13.60;99.90;;;;;;5207298;28;20026;-74
2022/09/08 04:58:36;;;;;;;1999.90;999.90;;;13.90;99.90;;;;;;5207147;28;20032;-73
2022/09/08 05:01:12;;;;;;;1999.90;999.90;;;13.90;99.90;;;;;;5205332;28;20389;-72
2022/09/08 05:03:43;;;;;;;1999.90;999.90;;;13.80;99.90;;;;;;5205812;28;20531;-76
2022/09/08 05:06:16;;;;;;;1999.90;999.90;;;13.80;99.90;;;;;;5206777;28;20120;-74
2022/09/08 05:08:49;;;;;;;1999.90;999.90;;;14.20;99.90;;;;;;5206813;28;20382;-77
2022/09/08 05:11:21;;;;;;;1999.90;999.90;;;14.20;99.90;;;;;;5206571;28;20108;-75
2022/09/08 05:13:53;;;;;;;1999.90;999.90;;;14.40;99.90;;;;;;5206547;28;20049;-74
2022/09/08 05:16:26;;;;;;;1999.90;999.90;;;14.70;99.90;;;;;;5206686;28;20087;-76
2022/09/08 05:18:59;;;;;;;1999.90;999.90;;;14.50;99.90;;;;;;5206666;28;20021;-75
2022/09/08 05:21:33;;;;;;;1999.90;999.90;;;15.00;99.90;;;;;;5204231;28;20013;-75
2022/09/08 05:24:05;;;;;;;1999.90;999.90;;;15.40;99.90;;;;;;5204387;28;20025;-76
2022/09/08 05:26:35;;;;;;;1999.90;999.90;;;15.00;99.90;;;;;;5206695;28;20378;-77
2022/09/08 05:29:07;;;;;;;1999.90;999.90;;;15.50;99.90;;;;;;5205130;28;20037;-76
2022/09/08 05:31:38;;;;;;;1999.90;999.90;;;15.60;99.90;;;;;;5205359;28;20044;-71
2022/09/08 05:34:09;;;;;;;1999.90;999.90;;;15.80;99.90;;;;;;5205299;28;20038;-77
2022/09/08 05:36:40;;;;;;;1999.90;999.90;;;15.90;99.90;;;;;;5203629;28;20026;-77
2022/09/08 05:39:11;;;;;;;1999.90;999.90;;;16.00;99.90;;;;;;5205219;28;20029;-76
2022/09/08 05:41:42;;;;;;;1999.90;999.90;;;16.20;99.90;;;;;;5204757;28;20057;-76
2022/09/08 05:44:14;;;;;;;1999.90;999.90;;;16.40;99.90;;;;;;5203822;28;20057;-71
2022/09/08 05:46:45;;;;;;;1999.90;999.90;;;16.60;99.90;;;;;;5206234;28;20025;-76
2022/09/08 05:49:16;;;;;;;1999.90;999.90;;;16.80;99.90;;;;;;5204275;28;20438;-73
2022/09/08 05:51:49;;;;;;;1999.90;999.90;;;17.20;99.90;;;;;;5203897;28;20025;-76
2022/09/08 05:54:22;;;;;;;1999.90;999.90;;;17.10;99.90;;;;;;5200406;28;20068;-73
2022/09/08 05:56:52;;;;;;;1999.90;999.90;;;17.50;99.90;;;;;;5204820;28;20159;-77
2022/09/08 05:59:23;;;;;;;1999.90;999.90;;;17.80;99.90;;;;;;5204705;28;20112;-76
2022/09/08 06:01:54;;;;;;;1999.90;999.90;;;17.90;99.90;;;;;;5204583;28;20030;-76
2022/09/08 06:04:25;;;;;;;1999.90;999.90;;;18.10;99.90;;;;;;5203622;28;20018;-77
2022/09/08 06:06:55;;;;;;;1999.90;999.90;;;18.50;99.90;;;;;;5204623;28;20025;-77
2022/09/08 06:09:26;;;;;;;1999.90;999.90;;;18.70;99.90;;;;;;5203361;28;20037;-77
2022/09/08 06:11:57;;;;;;;1999.90;999.90;;;18.90;99.90;;;;;;5204429;28;20446;-77
2022/09/08 06:14:28;;;;;;;1999.90;999.90;;;19.20;99.90;;;;;;5204474;28;20037;-77
2022/09/08 06:16:59;;;;;;;1999.90;999.90;;;19.60;99.90;;;;;;5203476;28;20096;-78
2022/09/08 06:19:30;;;;;;;1999.90;999.90;;;19.60;99.90;;;;;;5204507;28;20048;-77
2022/09/08 06:22:00;;;;;;;1999.90;999.90;;;19.70;99.90;;;;;;5204884;28;20591;-74
2022/09/08 06:24:31;;;;;;;1999.90;999.90;;;20.00;99.90;;;;;;5202587;28;20470;-71
2022/09/08 06:27:23;;;;;;;1999.90;999.90;;;20.20;99.90;;;;;;5203007;28;20021;-76
2022/09/08 06:30:12;;;;;;;1999.90;999.90;;;20.60;99.90;;;;;;5201333;28;20029;-72
2022/09/08 06:32:54;;;;;;;1999.90;999.90;;;20.70;99.90;;;;;;5202942;28;20528;-77
2022/09/08 06:35:35;;;;;;;1999.90;999.90;;;20.70;99.90;;;;;;5200086;28;20022;-76
2022/09/08 06:38:30;;;;;;;1999.90;999.90;;;21.30;99.90;;;;;;5652124;23;20172;-75
2022/09/08 06:41:10;;;;;;;1999.90;999.90;;;21.50;99.90;;;;;;5203995;28;20022;-75
2022/09/08 06:43:57;;;;;;;1999.90;999.90;;;21.60;99.90;;;;;;5203826;28;20426;-74
2022/09/08 06:46:32;;;;;;;1999.90;999.90;;;21.50;99.90;;;;;;5204122;28;20032;-75
2022/09/08 06:49:03;;;;;;;1999.90;999.90;;;22.10;99.90;;;;;;5201896;28;20037;-72
2022/09/08 06:51:43;;;;;;;1999.90;999.90;;;22.10;99.90;;;;;;5202632;28;20026;-73
2022/09/08 06:54:14;;;;;;;;;;;22.30;99.90;;;;;;5205420;28;20481;-72
2022/09/08 06:57:06;;;;;;;1999.90;999.90;;;22.60;99.90;;;;;;5204816;28;20361;-74
2022/09/08 06:59:57;;;;;;;1999.90;999.90;;;22.80;99.90;;;;;;5204787;28;20065;-71
2022/09/08 07:02:46;;;;;;;1999.90;999.90;;;22.90;99.90;;;;;;5206067;28;20056;-73
2022/09/08 07:05:36;;;;;;;1999.90;999.90;;;22.80;99.90;;;;;;5202796;28;20036;-72
2022/09/08 07:08:30;;;;;;;1999.90;999.90;;;23.00;99.90;;;;;;5203043;28;20045;-73
2022/09/08 07:11:18;;;;;;;1999.90;999.90;;;22.90;99.90;;;;;;5202636;28;20033;-74
2022/09/08 07:14:09;;;;;;;1999.90;999.90;;;22.90;99.90;;;;;;5202729;28;20043;-75
2022/09/08 07:17:18;;;;;;;1999.90;999.90;;;23.30;99.90;;;;;;5200465;28;21381;-78
2022/09/08 07:19:52;;;;;;;1999.90;999.90;;;23.30;99.90;;;;;;5201002;28;20053;-76
2022/09/08 07:22:39;;;;;;;1999.90;999.90;;;23.50;99.90;;;;;;5201142;28;20037;-77
2022/09/08 07:25:19;;;;;;;1999.90;999.90;;;23.50;99.90;;;;;;5202649;28;20041;-78
2022/09/08 07:28:24;;;;;;;1999.90;999.90;;;23.70;99.90;;;;;;5204436;28;20079;-73
2022/09/08 07:31:05;;;;;;;1999.90;999.90;;;23.80;99.90;;;;;;5199538;28;20033;-78
2022/09/08 07:33:44;;;;;;;1999.90;999.90;;;23.60;99.90;;;;;;5202588;28;20451;-72
2022/09/08 07:36:53;;;;;;;1999.90;999.90;;;23.60;99.90;;;;;;5203224;28;20048;-71
2022/09/08 07:39:41;;;;;;;1999.90;999.90;;;23.80;99.90;;;;;;5190309;28;20083;-72
2022/09/08 07:42:15;;;;;;;1999.90;999.90;;;23.80;99.90;;;;;;5206603;28;20029;-73
2022/09/08 07:44:48;;;;;;;1999.90;999.90;;;23.90;99.90;;;;;;5206438;28;20025;-75
2022/09/08 07:47:55;;;;;;;1999.90;999.90;;;24.10;99.90;;;;;;5205449;28;20041;-71
2022/09/08 07:50:56;;;;;;;1999.90;999.90;;;24.10;99.90;;;;;;5200695;28;20037;-73
2022/09/08 07:53:52;;;;;;;1999.90;999.90;;;24.00;99.90;;;;;;5208022;28;20041;-77
2022/09/08 07:56:42;;;;;;;1999.90;999.90;;;24.00;99.90;;;;;;5206493;28;20778;-74
2022/09/08 07:59:24;;;;;;;1999.90;999.90;;;23.90;99.90;;;;;;5207496;28;20037;-75
2022/09/08 08:01:58;;;;;;;1999.90;999.90;;;24.10;99.90;;;;;;5206794;28;20481;-74
2022/09/08 08:05:14;;;;;;;1999.90;999.90;;;24.20;99.90;;;;;;5206405;28;20029;-71
2022/09/08 08:08:01;;;;;;;1999.90;999.90;;;24.20;99.90;;;;;;5206259;28;20079;-76
2022/09/08 08:11:00;;;;;;;1999.90;999.90;;;24.70;99.90;;;;;;5208124;28;20056;-74
2022/09/08 08:13:48;;;;;;;1999.90;999.90;;;24.80;99.90;;;;;;5207830;28;20124;-77
2022/09/08 08:16:42;;;;;;;1999.90;999.90;;;24.40;99.90;;;;;;5209571;28;20025;-71
2022/09/08 08:19:28;;;;;;;1999.90;999.90;;;24.60;99.90;;;;;;5205605;28;20030;-72
2022/09/08 08:22:18;;;;;;;1999.90;999.90;;;24.60;99.90;;;;;;5205453;28;20427;-78
2022/09/08 08:25:04;;;;;;;1999.90;999.90;;;24.60;99.90;;;;;;5204871;28;20026;-76
2022/09/08 08:27:55;;;;;;;1999.90;999.90;;;24.90;99.90;;;;;;5207722;28;20013;-78
2022/09/08 08:30:28;;;;;;;1999.90;999.90;;;25.10;99.90;;;;;;5207546;28;20024;-78
2022/09/08 08:33:13;;;;;;;1999.90;999.90;;;24.60;99.90;;;;;;5205251;28;20087;-79
2022/09/08 08:35:51;;;;;;;1999.90;999.90;;;24.80;99.90;;;;;;5205929;28;20079;-80
2022/09/08 08:38:37;;;;;;;1999.90;999.90;;;25.30;99.90;;;;;;5208194;28;20437;-76
2022/09/08 08:41:23;;;;;;;1999.90;999.90;;;24.90;99.90;;;;;;5205969;28;20021;-79
2022/09/08 08:44:23;;;;;;;1999.90;999.90;;;25.60;99.90;;;;;;5201701;28;20025;-78
2022/09/08 08:47:13;;;;;;;1999.90;999.90;;;25.90;99.90;;;;;;5203853;28;20028;-77
2022/09/08 08:50:02;;;;;;;1999.90;999.90;;;25.90;99.90;;;;;;5205534;28;20049;-78
2022/09/08 08:53:08;;;;;;;1999.90;999.90;;;25.80;99.90;;;;;;5204953;28;20037;-75
2022/09/08 08:55:45;;;;;;;1999.90;999.90;;;25.90;99.90;;;;;;5204527;28;20022;-76
2022/09/08 08:59:00;;;;;;;1999.90;999.90;;;26.00;99.90;;;;;;5202760;28;20114;-74
2022/09/08 09:01:56;;;;;;;1999.90;999.90;;;25.90;99.90;;;;;;5206707;28;20033;-77
2022/09/08 09:05:04;;;;;;;1999.90;999.90;;;25.80;99.90;;;;;;5209160;28;20013;-80
2022/09/08 09:07:50;;;;;;;1999.90;999.90;;;25.90;99.90;;;;;;5206764;28;20033;-77
2022/09/08 09:10:48;;;;;;;1999.90;999.90;;;25.90;99.90;;;;;;5206680;28;20109;-75
2022/09/08 09:13:53;;;;;;;1999.90;999.90;;;25.70;99.90;;;;;;5204661;28;20033;-76
2022/09/08 09:16:54;;;;;;;1999.90;999.90;;;26.00;99.90;;;;;;5206320;28;20014;-76
2022/09/08 09:19:47;;;;;;;1999.90;999.90;;;26.10;99.90;;;;;;5204260;28;20030;-79
2022/09/08 09:22:39;;;;;;;1999.90;999.90;;;26.10;99.90;;;;;;5209116;28;20021;-74
2022/09/08 09:25:15;;;;;;;1999.90;999.90;;;25.70;99.90;;;;;;5206581;28;20112;-78
2022/09/08 09:28:22;;;;;;;1999.90;999.90;;;25.90;99.90;;;;;;5205688;28;20041;-75
2022/09/08 09:30:58;;;;;;;1999.90;999.90;;;26.10;99.90;;;;;;5206258;28;20021;-78
2022/09/08 09:34:11;;;;;;;1999.90;999.90;;;26.10;99.90;;;;;;5206456;28;20037;-79
2022/09/08 09:37:24;;;;;;;1999.90;999.90;;;26.30;99.90;;;;;;5208585;28;20033;-78
2022/09/08 09:39:58;;;;;;;1999.90;999.90;;;26.60;99.90;;;;;;5186717;28;20045;-79
2022/09/08 09:43:05;;;;;;;1999.90;999.90;;;26.50;99.90;;;;;;5205789;28;20029;-77
2022/09/08 09:45:51;;;;;;;1999.90;999.90;;;26.50;99.90;;;;;;5204102;28;20091;-79
2022/09/08 09:48:52;;;;;;;1999.90;999.90;;;26.30;99.90;;;;;;5199236;28;20025;-80
2022/09/08 09:51:23;;;;;;;1999.90;999.90;;;26.50;99.90;;;;;;5201489;28;20041;-81
2022/09/08 09:54:01;;;;;;;1999.90;999.90;;;26.60;99.90;;;;;;5206041;28;20033;-76
2022/09/08 09:56:57;;;;;;;1999.90;999.90;;;26.30;99.90;;;;;;5206924;28;20022;-80
2022/09/08 09:59:49;;;;;;;1999.90;999.90;;;26.60;99.90;;;;;;5204260;28;20043;-75
2022/09/08 10:02:42;;;;;;;1999.90;999.90;;;27.00;99.90;;;;;;5202649;28;20041;-73
2022/09/08 10:05:27;;;;;;;1999.90;999.90;;;26.90;99.90;;;;;;5204085;28;20049;-81
2022/09/08 10:08:26;;;;;;;1999.90;999.90;;;26.60;99.90;;;;;;5204463;28;20053;-78
2022/09/08 10:11:17;;;;;;;1999.90;999.90;;;27.20;99.90;;;;;;5207452;28;20030;-79
2022/09/08 10:14:26;;;;;;;1999.90;999.90;;;26.80;99.90;;;;;;5203896;28;20118;-79
2022/09/08 10:17:33;;;;;;;1999.90;999.90;;;27.10;99.90;;;;;;5204545;28;20441;-75
2022/09/08 10:20:25;;;;;;;1999.90;999.90;;;27.10;99.90;;;;;;5202337;28;20025;-77
2022/09/08 10:23:21;;;;;;;1999.90;999.90;;;27.00;99.90;;;;;;5201662;28;20041;-79
2022/09/08 10:26:16;;;;;;;1999.90;999.90;;;26.90;99.90;;;;;;5203625;28;20052;-78
2022/09/08 10:29:00;;;;;;;1999.90;999.90;;;27.30;99.90;;;;;;5202928;28;20037;-75
2022/09/08 10:32:01;;;;;;;1999.90;999.90;;;26.00;99.90;;;;;;5203697;28;20029;-72
2022/09/08 10:34:57;;;;;;;1999.90;999.90;;;26.70;99.90;;;;;;5203827;28;20600;-76
2022/09/08 10:37:46;;;;;;;1999.90;999.90;;;27.10;99.90;;;;;;5203125;28;20095;-79
2022/09/08 10:40:33;;;;;;;1999.90;999.90;;;27.00;99.90;;;;;;5202095;28;20068;-77
2022/09/08 10:43:18;;;;;;;1999.90;999.90;;;27.20;99.90;;;;;;5201891;28;20104;-78
2022/09/08 10:46:18;;;;;;;1999.90;999.90;;;27.00;99.90;;;;;;5203575;28;20030;-76
2022/09/08 10:48:58;;;;;;;1999.90;999.90;;;26.80;99.90;;;;;;5132111;28;20033;-75
2022/09/08 10:51:40;;;;;;;1999.90;999.90;;;27.00;99.90;;;;;;5203147;28;20022;-77
2022/09/08 10:54:34;;;;;;;1999.90;999.90;;;27.20;99.90;;;;;;5203460;28;20033;-77
2022/09/08 10:57:42;;;;;;;1999.90;999.90;;;27.10;99.90;;;;;;5200483;28;20033;-79
2022/09/08 11:00:18;;;;;;;1999.90;999.90;;;27.40;99.90;;;;;;5203088;28;20030;-78
2022/09/08 11:03:31;;;;;;;1999.90;999.90;;;27.30;99.90;;;;;;5202318;28;20026;-73
2022/09/08 11:06:17;;;;;;;1999.90;999.90;;;26.80;99.90;;;;;;5139951;28;20045;-80
2022/09/08 11:08:48;;;;;;;1999.90;999.90;;;27.00;99.90;;;;;;5202778;28;20036;-82
2022/09/08 11:11:32;;;;;;;1999.90;999.90;;;26.90;99.90;;;;;;5205571;28;20029;-71
2022/09/08 11:14:19;;;;;;;1999.90;999.90;;;27.20;99.90;;;;;;5205839;28;20037;-82
2022/09/08 11:17:28;;;;;;;1999.90;999.90;;;27.50;99.90;;;;;;5207883;28;20025;-79
2022/09/08 11:20:33;;;;;;;1999.90;999.90;;;26.90;99.90;;;;;;5196671;28;20045;-80
2022/09/08 11:23:41;;;;;;;1999.90;999.90;;;27.40;99.90;;;;;;5206807;28;20060;-80
2022/09/08 11:26:35;;;;;;;1999.90;999.90;;;27.60;99.90;;;;;;5206661;28;20775;-71
2022/09/08 11:29:14;;;;;;;1999.90;999.90;;;27.20;99.90;;;;;;5205825;28;20037;-71
2022/09/08 11:32:23;;;;;;;1999.90;999.90;;;27.70;99.90;;;;;;5206570;28;20099;-83
2022/09/08 11:38:08;;;;;;;1999.90;999.90;;;27.80;99.90;;;;;;5241896;28;20396;-82
2022/09/08 11:41:03;;;;;;;1999.90;999.90;;;27.20;99.90;;;;;;5251367;28;20025;-82
2022/09/08 11:43:49;;;;;;;1999.90;999.90;;;27.20;99.90;;;;;;5251567;28;20021;-77
2022/09/08 11:46:57;;;;;;;1999.90;999.90;;;27.70;99.90;;;;;;5245241;28;20154;-73
2022/09/08 11:49:37;;;;;;;1999.90;999.90;;;27.70;99.90;;;;;;5245708;28;20074;-77
2022/09/08 11:52:28;;;;;;;1999.90;999.90;;;27.60;99.90;;;;;;5246980;28;20040;-82
2022/09/08 11:55:17;;;;;;;1999.90;999.90;;;27.80;99.90;;;;;;5243889;28;20594;-81
2022/09/08 11:57:48;;;;;;;;;;;27.60;99.90;;;;;;5248891;28;20111;-78
2022/09/08 12:01:01;;;;;;;1999.90;999.90;;;27.80;99.90;;;;;;5248549;28;20058;-81
2022/09/08 12:04:02;;;;;;;1999.90;999.90;;;27.50;99.90;;;;;;5227172;28;20058;-78
2022/09/08 12:06:46;;;;;;;1999.90;999.90;;;26.80;99.90;;;;;;5261319;28;20028;-77
2022/09/08 12:09:23;;;;;;;1999.90;999.90;;;27.10;99.90;;;;;;5268092;28;20444;-81
2022/09/08 12:12:26;;;;;;;1999.90;999.90;;;27.20;99.90;;;;;;5266757;28;20448;-83
2022/09/08 12:15:28;;;;;;;1999.90;999.90;;;28.10;99.90;;;;;;5267738;28;20036;-81
2022/09/08 12:18:08;;;;;;;1999.90;999.90;;;28.00;99.90;;;;;;5262603;28;20035;-83
2022/09/08 12:20:57;;;;;;;1999.90;999.90;;;27.80;99.90;;;;;;5269439;28;20063;-78
2022/09/08 12:23:28;;;;;;;1999.90;999.90;;;27.70;99.90;;;;;;5262608;28;20523;-79
2022/09/08 12:26:30;;;;;;;1999.90;999.90;;;27.50;99.90;;;;;;5266504;28;20032;-82
2022/09/08 12:29:16;;;;;;;1999.90;999.90;;;27.80;99.90;;;;;;5267129;28;20452;-80
2022/09/08 12:32:15;;;;;;;1999.90;999.90;;;27.30;99.90;;;;;;5269195;28;20040;-82
2022/09/08 12:35:04;;;;;;;1999.90;999.90;;;27.60;99.90;;;;;;5268352;28;20028;-80
2022/09/08 12:37:38;;;;;;;1999.90;999.90;;;26.60;99.90;;;;;;5246023;28;20041;-84
2022/09/08 12:40:33;;;;;;;1999.90;999.90;;;27.20;99.90;;;;;;5247165;28;20020;-81
2022/09/08 12:43:35;;;;;;;1999.90;999.90;;;27.40;99.90;;;;;;5246609;28;20108;-76
2022/09/08 12:46:24;;;;;;;1999.90;999.90;;;27.70;99.90;;;;;;5248221;28;20504;-78
2022/09/08 12:49:01;;;;;;;1999.90;999.90;;;27.60;99.90;;;;;;5248099;28;20066;-75
2022/09/08 12:51:38;;;;;;;1999.90;999.90;;;27.60;99.90;;;;;;5246862;28;20409;-77
2022/09/08 12:54:28;;;;;;;1999.90;999.90;;;27.40;99.90;;;;;;5250208;28;20136;-82
2022/09/08 12:57:33;;;;;;;1999.90;999.90;;;27.20;99.90;;;;;;5248278;28;20025;-81
2022/09/08 13:00:16;;;;;;;1999.90;999.90;;;27.50;99.90;;;;;;5247581;28;20028;-78
2022/09/08 13:03:18;;;;;;;1999.90;999.90;;;27.50;99.90;;;;;;5248844;28;20029;-76
2022/09/08 13:06:11;;;;;;;1999.90;999.90;;;27.60;99.90;;;;;;5248327;28;20488;-79
2022/09/08 13:09:00;;;;;;;1999.90;999.90;;;27.20;99.90;;;;;;5249668;28;20028;-77
2022/09/08 13:11:43;;;;;;;;;;;27.00;99.90;;;;;;5247011;28;20032;-80
2022/09/08 13:14:19;;;;;;;1999.90;999.90;;;27.30;99.90;;;;;;5247973;28;20348;-82
2022/09/08 13:17:08;;;;;;;1999.90;999.90;;;27.10;99.90;;;;;;5248802;28;20017;-79
2022/09/08 13:19:50;;;;;;;;;;;26.70;99.90;;;;;;5248710;28;20040;-82